Townsend, MT (59644)

12:52 AM MDT on September 01, 2016 (GMT -0600)
Townsend, Montana | | Change Station

Elev 3944 ft 46.26 °N, 111.45 °W | Updated 7 minutes ago

Scattered Clouds
Scattered Clouds
68.0 °F
Feels Like 68.0 °F
N
8.0
Wind Variable Wind from ENE
Gusts 12.0 mph

Today
High -- | Low -- °F
--% Chance of Precip.
Yesterday
High -- | Low -- °F
Precip. -- in
Pressure 29.90 in
Visibility 10.0 miles
Clouds Few 9000 ft
Scattered Clouds 11000 ft
Dew Point 45 °F
Humidity 44%
Rainfall 0.00 in
Snow Depth Not available.
6:47 AM 8:03 PM
Waning Crescent, 0% visible
METAR KHLN 010553Z 27016G27KT 10SM FEW090 SCT110 26/05 A2998 RMK AO2 PK WND 28027/0551 SLP125 T02560050 10289 20228 53003
Pressure 29.90 in
Visibility 10.0 miles
Clouds Few 9000 ft
Scattered Clouds 11000 ft
Dew Point 45 °F
Humidity 44%
Rainfall 0.00 in
Snow Depth Not available.
6:47 AM 8:03 PM
Waning Crescent, 0% visible
METAR KHLN 010553Z 27016G27KT 10SM FEW090 SCT110 26/05 A2998 RMK AO2 PK WND 28027/0551 SLP125 T02560050 10289 20228 53003

10-Day Weather Forecast

Almanac

Astronomy

Sep. 01, 2016 Rise Set
Actual Time
Civil Twilight
Nautical Twilight
Astronomical Twilight
Moon
Length of Visible Light
Length of Day
Tomorrow will be .
, % of the Moon is Illuminated

Today's Extremes

State Highs State Lows

Community

WunderPhotos

Upload Photos

1,936,315 photos uploaded!

WunderBlog® & News

Nearby

Air Quality

  Air Quality AQ Index Pollutant
Not available.

Snow Depth

Station Depth Elevation

Earthquake Activity

City Distance Mag. Time & Date
Minimum magnitude displayed is 2.5.

Coastal Water Temperatures

Place Temperature

Stations

Nearby Weather Stations

Station Location Temp. Windchill Dew Point Humidity Wind Precip. Elev Updated Type
                   

Watches & Warnings

There are currently no watches in effect.